NEODyS-2

Near Earth Objects - Dynamic Site
NEODyS ∴ Observatories ∴ Site 691 ∴ Obs & residuals
Contact »
691  ▹ 
OBSERVATIONS AND RESIDUALS

691-Steward Observatory, Kitt Peak-Spacewatch

Detections | Residuals | Detections & Residuals

[1-200] [201-400] [401-600] [601-800] [801-1000] [1001-1200] [1201-1400] [1401-1600] [1601-1800] [1801-2000] [2001-2200] [2201-2400] [2401-2600] [2601-2800] [2801-3000] [3001-3200] [3201-3400] [3401-3600] [3601-3800] [3801-4000] [4001-4200] [4201-4400] [4401-4600] [4601-4800] [4801-5000] [5001-5200] [5201-5400] [5401-5600] [5601-5800] [5801-6000] [6001-6200] [6201-6400] [6401-6600] [6601-6800] [6801-7000] [7001-7200] [7201-7400] [7401-7600] [7601-7800] [7801-8000] [8001-8200] [8201-8400] [8401-8600] [8601-8800] [8801-9000] [9001-9200] [9201-9400] [9401-9600] [9601-9800] [9801-10000] [10001-10200] [10201-10400] [10401-10600] [10601-10800] [10801-11000] [11001-11200] [11201-11400] [11401-11600] [11601-11800] [11801-12000] [12001-12200] [12201-12400] [12401-12600] [12601-12800] [12801-13000] [13001-13200] [13201-13400] [13401-13600] [13601-13800] [13801-14000] [14001-14200] [14201-14400] [14401-14600] [14601-14800] [14801-15000] [15001-15200] [15201-15400] [15401-15600] [15601-15800] [15801-16000] [16001-16200] [16201-16400] [16401-16600] [16601-16800] [16801-17000] [17001-17200] [17201-17400] [17401-17600] [17601-17800] [17801-18000] [18001-18200] [18201-18400] [18401-18600] [18601-18800] [18801-19000] [19001-19200] [19201-19400] [19401-19600] [19601-19800] [19801-20000] [20001-20200] [20201-20400] [20401-20600] [20601-20800] [20801-21000] [21001-21200] [21201-21400] [21401-21600] [21601-21800] [21801-22000] [22001-22200] [22201-22400] [22401-22600] [22601-22800] [22801-23000] [23001-23200] [23201-23400] [23401-23600] [23601-23800] [23801-24000] [24001-24200] [24201-24400] [24401-24600] [24601-24800] [24801-25000] [25001-25200] [25201-25400] [25401-25600] [25601-25800] [25801-26000] [26001-26200] [26201-26400] [26401-26600] [26601-26800] [26801-27000] [27001-27200] [27201-27400] [27401-27600] [27601-27800] [27801-28000] [28001-28200] [28201-28400] [28401-28600] [28601-28800] [28801-29000] [29001-29200] [29201-29400] [29401-29600] [29601-29800] [29801-30000] [30001-30200] [30201-30400] [30401-30600] [30601-30800] [30801-31000] [31001-31200] [31201-31400] [31401-31600] [31601-31800] [31801-32000] [32001-32200] [32201-32400] [32401-32600] [32601-32800] [32801-33000] [33001-33200] [33201-33400] [33401-33600] [33601-33800] [33801-34000] [34001-34200] [34201-34400] [34401-34600] [34601-34800] [34801-35000] [35001-35200] [35201-35400] [35401-35600] [35601-35800] [35801-36000] [36001-36200] [36201-36400] [36401-36600] [36601-36800] [36801-37000] [37001-37200] [37201-37400] [37401-37600] [37601-37800] [37801-38000] [38001-38200] [38201-38400] [38401-38600] [38601-38800] [38801-39000] [39001-39200] [39201-39400] [39401-39600] [39601-39800] [39801-40000] [40001-40200] [40201-40400] [40401-40600] [40601-40800] [40801-41000] [41001-41200] [41201-41400] [41401-41600] [41601-41800] [41801-42000] [42001-42200] [42201-42400] [42401-42600] [42601-42800] [42801-43000] [43001-43200] [43201-43400] [43401-43600] [43601-43800] [43801-44000] [44001-44200] [44201-44400] [44401-44600] [44601-44800] [44801-45000] [45001-45200] [45201-45400] [45401-45600] [45601-45800] [45801-46000] [46001-46200] [46201-46400] [46401-46600] [46601-46800] [46801-47000] [47001-47200] [47201-47400] [47401-47600] [47601-47800] [47801-48000] [48001-48200] [48201-48400] [48401-48600] [48601-48800] [48801-49000] [49001-49200] [49201-49400] [49401-49600] [49601-49800] [49801-50000] [50001-50200] [50201-50388]

Designation T Tech N Date Right Ascension Declination Apparent Magnitude Star Catalog Site code χ Used A Used M
yr-mo-day precision hr:min:sec precision rms F bias residual deg min sec precision rms F bias residual mag/col rms residual
1950DA O C 2010-09-17.20267 1.000E-05 00:40:34.370 1.500E-01 0.500 F -0.259 -0.585 +07° 22' 32.10" 1.000E-01 0.500 F 0.181 -0.139 19.7 V 0.70 0.01 o 691 1.20 Yes Yes
1950DA O C 2010-09-17.22033 1.000E-05 00:40:32.560 1.500E-01 0.500 F -0.259 -0.328 +07° 22' 28.20" 1.000E-01 0.500 F 0.181 0.312 19.5 V 0.70 -0.19 o 691 0.91 Yes Yes
1950DA O C 2010-09-17.23798 1.000E-05 00:40:30.760 1.500E-01 0.500 F -0.259 0.125 +07° 22' 22.90" 1.000E-01 0.500 F 0.181 -0.629 19.6 V 0.70 -0.09 o 691 1.28 Yes Yes
2010SX11 O C 2010-09-18.20515 1.000E-05 00:22:27.030 1.500E-01 0.500 F -0.128 -0.309 +09° 26' 20.70" 1.000E-01 0.500 F 0.266 0.346 20.4 V 0.70 -0.45 o 691 1.00 Yes Yes
2010SX11 O C 2010-09-18.22287 1.000E-05 00:22:27.700 1.500E-01 0.500 F -0.128 -0.037 +09° 25' 47.40" 1.000E-01 0.500 F 0.266 -0.240 21.1 V 0.70 0.25 o 691 0.53 Yes Yes
2010SX11 O C 2010-09-18.24059 1.000E-05 00:22:28.320 1.500E-01 0.500 F -0.128 0.082 +09° 25' 14.60" 1.000E-01 0.500 F 0.266 -0.148 20.8 V 0.70 -0.05 o 691 0.37 Yes Yes
2001FD90 O C 2010-09-18.25323 1.000E-05 00:32:28.460 1.500E-01 0.500 F -0.134 -0.271 +08° 54' 31.80" 1.000E-01 0.500 F 0.223 -0.164 21.2 V 0.70 0.29 o 691 0.64 Yes Yes
2001FD90 O C 2010-09-18.26839 1.000E-05 00:32:27.220 1.500E-01 0.500 F -0.134 -0.399 +08° 54' 19.70" 1.000E-01 0.500 F 0.223 0.058 21.1 V 0.70 0.19 o 691 0.81 Yes Yes
2001FD90 O C 2010-09-18.28358 1.000E-05 00:32:26.000 1.500E-01 0.500 F -0.134 -0.162 +08° 54' 07.30" 1.000E-01 0.500 F 0.223 0.016 21.1 V 0.70 0.19 o 691 0.33 Yes Yes
1997GH28 O C 2010-09-18.30268 1.000E-05 01:00:14.710 1.500E-01 0.500 F -0.080 -0.375 +09° 30' 24.50" 1.000E-01 0.500 F 0.330 0.078 19.2 V 0.70 0.02 o 691 0.76 Yes Yes
1997GH28 O C 2010-09-18.32037 1.000E-05 01:00:13.700 1.500E-01 0.500 F -0.080 -0.518 +09° 30' 27.60" 1.000E-01 0.500 F 0.330 -0.042 19.3 V 0.70 0.12 o 691 1.04 Yes Yes
1997GH28 O C 2010-09-18.33807 1.000E-05 01:00:12.710 1.500E-01 0.500 F -0.080 -0.316 +09° 30' 30.70" 1.000E-01 0.500 F 0.330 -0.142 19.5 V 0.70 0.32 o 691 0.69 Yes Yes
2004TX37 O C 2010-09-18.35431 1.000E-05 01:42:17.430 1.500E-01 0.500 F -0.103 -0.121 +11° 12' 44.30" 1.000E-01 0.500 F 0.240 -0.020 21.9 V 0.70 0.51 o 691 0.25 Yes Yes
2010RA147 O C 2010-09-18.36197 1.000E-05 01:31:40.690 1.500E-01 0.500 F -0.119 -0.291 +09° 32' 51.50" 1.000E-01 0.500 F 0.246 -0.156 21.3 V 0.70 0.39 o 691 0.66 Yes Yes
2004TX37 O C 2010-09-18.37200 1.000E-05 01:42:16.840 1.500E-01 0.500 F -0.103 0.048 +11° 12' 40.60" 1.000E-01 0.500 F 0.240 0.151 21.4 V 0.70 0.01 o 691 0.32 Yes Yes
2010RA147 O C 2010-09-18.37966 1.000E-05 01:31:39.950 1.500E-01 0.500 F -0.119 0.251 +09° 32' 52.80" 1.000E-01 0.500 F 0.246 -0.143 21.2 V 0.70 0.29 o 691 0.58 Yes Yes
2004TX37 O C 2010-09-18.38972 1.000E-05 01:42:16.220 1.500E-01 0.500 F -0.103 -0.202 +11° 12' 36.50" 1.000E-01 0.500 F 0.240 -0.063 21.6 V 0.70 0.21 o 691 0.43 Yes Yes
2010RA147 O C 2010-09-18.39737 1.000E-05 01:31:39.150 1.500E-01 0.500 F -0.119 -0.065 +09° 32' 54.30" 1.000E-01 0.500 F 0.246 0.091 20.9 V 0.70 -0.01 o 691 0.23 Yes Yes
2010SL13 O C 2010-09-19.19693 1.000E-05 00:03:06.880 1.500E-01 0.500 F -0.129 -0.348 +02° 31' 30.70" 1.000E-01 0.500 F 0.258 -0.274 21.1 V 0.70 0.51 o 691 0.89 Yes Yes
2010SL13 O C 2010-09-19.22169 1.000E-05 00:03:05.110 1.500E-01 0.500 F -0.129 -0.327 +02° 31' 16.80" 1.000E-01 0.500 F 0.258 -0.013 20.9 V 0.70 0.31 o 691 0.66 Yes Yes
2010SL13 O C 2010-09-19.23951 1.000E-05 00:03:03.820 1.500E-01 0.500 F -0.129 -0.468 +02° 31' 07.10" 1.000E-01 0.500 F 0.258 0.489 21.0 V 0.70 0.41 o 691 1.36 Yes Yes
2010SE12 O C 2010-09-19.25539 1.000E-05 00:38:00.900 1.500E-01 0.500 F -0.196 -0.076 +05° 14' 18.20" 1.000E-01 0.500 F 0.088 -0.254 20.7 V 0.70 -0.03 o 691 0.57 Yes Yes
2010SE12 O C 2010-09-19.27302 1.000E-05 00:38:02.580 1.500E-01 0.500 F -0.196 -0.209 +05° 13' 02.90" 1.000E-01 0.500 F 0.088 0.375 20.5 V 0.70 -0.23 o 691 0.93 Yes Yes
2010SE12 O C 2010-09-19.29065 1.000E-05 00:38:04.250 1.500E-01 0.500 F -0.196 -0.165 +05° 11' 46.20" 1.000E-01 0.500 F 0.088 -0.348 20.7 V 0.70 -0.03 o 691 0.83 Yes Yes
2010KY39 O C 2010-09-19.36553 1.000E-05 01:03:06.460 1.500E-01 0.500 F -0.166 -0.023 +14° 59' 54.10" 1.000E-01 0.500 F 0.342 0.192 19.6 V 0.70 -0.07 o 691 0.40 Yes Yes
2010KY39 O C 2010-09-19.38320 1.000E-05 01:03:05.310 1.500E-01 0.500 F -0.166 -0.174 +14° 58' 44.00" 1.000E-01 0.500 F 0.342 -0.086 19.5 V 0.70 -0.17 o 691 0.40 Yes Yes
2010KY39 O C 2010-09-19.40086 1.000E-05 01:03:04.180 1.500E-01 0.500 F -0.166 -0.075 +14° 57' 34.10" 1.000E-01 0.500 F 0.342 -0.150 19.6 V 0.70 -0.07 o 691 0.34 Yes Yes
2010SG13 O C 2010-09-27.10646 1.000E-05 18:08:10.670 1.500E-01 0.500 F 0.083 0.071 +28° 26' 08.00" 1.000E-01 0.500 F 0.231 -0.543 21.7 V 0.70 0.94 o 691 1.12 Yes Yes
2010SG13 O C 2010-09-27.11443 1.000E-05 18:08:10.300 1.500E-01 0.500 F 0.083 -0.195 +28° 25' 57.10" 1.000E-01 0.500 F 0.231 0.017 20.8 V 0.70 0.04 o 691 0.40 Yes Yes
2010SG13 O C 2010-09-27.12283 1.000E-05 18:08:09.930 1.500E-01 0.500 F 0.083 -0.222 +28° 25' 45.50" 1.000E-01 0.500 F 0.231 0.504 21.0 V 0.70 0.24 o 691 1.12 Yes Yes
2010SH13 O C 2010-09-27.13006 1.000E-05 23:26:17.150 1.500E-01 0.500 F -0.102 -0.282 +05° 42' 39.10" 1.000E-01 0.500 F 0.168 0.087 20.6 V 0.70 0.22 o 691 0.60 Yes Yes
2010SH13 O C 2010-09-27.14771 1.000E-05 23:26:15.860 1.500E-01 0.500 F -0.102 0.006 +05° 41' 53.50" 1.000E-01 0.500 F 0.168 0.931 21.1 V 0.70 0.72 o 691 1.89 Yes Yes
2010SH13 O C 2010-09-27.16536 1.000E-05 23:26:14.530 1.500E-01 0.500 F -0.102 -0.135 +05° 41' 05.70" 1.000E-01 0.500 F 0.168 -0.411 20.7 V 0.70 0.32 o 691 0.88 Yes Yes
2010RV30 O C H 2010-09-27.21487 1.000E-05 00:22:01.560 1.500E-01 0.500 F -0.196 -0.770 +03° 33' 30.80" 1.000E-01 0.500 F 0.216 0.508 21.2 V 0.70 0.09 o 691 2.01 Yes Yes
2010RV30 O C H 2010-09-27.23251 1.000E-05 00:22:03.130 1.500E-01 0.500 F -0.196 -0.099 +03° 33' 39.10" 1.000E-01 0.500 F 0.216 -0.901 o 691 1.97 Yes No
2002XR14 O C H 2010-09-27.48740 1.000E-05 06:39:39.070 1.500E-01 0.500 F -0.064 -0.926 +22° 46' 49.90" 1.000E-01 0.500 F 0.098 -0.602 o 691 2.21 Yes No
2002XR14 O C H 2010-09-27.50011 1.000E-05 06:39:40.660 1.500E-01 0.500 F -0.064 0.323 +22° 46' 49.70" 1.000E-01 0.500 F 0.098 0.133 o 691 0.70 Yes No
2010RB130 O C 2010-09-28.25725 1.000E-05 01:05:29.570 1.500E-01 0.500 F -0.082 -0.435 +08° 43' 31.10" 1.000E-01 0.500 F 0.358 -0.189 o 691 0.99 Yes No
2010RB130 O C 2010-09-28.27489 1.000E-05 01:05:36.190 1.500E-01 0.500 F -0.082 -0.193 +08° 44' 32.60" 1.000E-01 0.500 F 0.358 0.073 o 691 0.42 Yes No
2010RB130 O C 2010-09-28.29256 1.000E-05 01:05:42.740 1.500E-01 0.500 F -0.082 -0.426 +08° 45' 33.20" 1.000E-01 0.500 F 0.358 -0.335 o 691 1.12 Yes No
2004TX37 O C 2010-09-29.36395 1.000E-05 01:35:20.640 1.500E-01 0.500 F -0.112 -0.439 +10° 26' 30.00" 1.000E-01 0.500 F 0.265 0.050 o 691 0.89 Yes No
2004TX37 O C 2010-09-29.38167 1.000E-05 01:35:19.890 1.500E-01 0.500 F -0.112 -0.125 +10° 26' 24.90" 1.000E-01 0.500 F 0.265 -0.030 o 691 0.26 Yes No
2004TX37 O C 2010-09-29.39943 1.000E-05 01:35:19.110 1.500E-01 0.500 F -0.112 -0.231 +10° 26' 19.90" 1.000E-01 0.500 F 0.265 0.009 o 691 0.47 Yes No
2004VG64 O C H 2010-09-30.41387 1.000E-05 06:21:56.870 1.500E-01 0.500 F -0.080 0.413 +01° 27' 43.40" 1.000E-01 0.500 F 0.130 -0.282 21.1 V 0.70 0.25 o 691 1.00 Yes Yes
2003NO4 O C H 2010-09-30.42171 1.000E-05 06:23:34.930 1.500E-01 0.500 F -0.090 0.330 -04° 19' 33.50" 1.000E-01 0.500 F 0.077 -1.299 o 691 2.69 Yes No
2004VG64 O C H 2010-09-30.43252 1.000E-05 06:21:57.340 1.500E-01 0.500 F -0.080 0.444 +01° 27' 10.30" 1.000E-01 0.500 F 0.130 -0.805 o 691 1.84 Yes No
2003NO4 O C H 2010-09-30.44037 1.000E-05 06:23:36.100 1.500E-01 0.500 F -0.090 0.707 -04° 19' 43.90" 1.000E-01 0.500 F 0.077 -1.557 o 691 3.41 No No
2004VG64 O C H 2010-09-30.45122 1.000E-05 06:21:57.760 1.500E-01 0.500 F -0.080 -0.218 +01° 26' 39.10" 1.000E-01 0.500 F 0.130 0.668 20.5 V 0.70 -0.35 o 691 1.41 Yes Yes
2003NO4 O C H 2010-09-30.45907 1.000E-05 06:23:37.240 1.500E-01 0.500 F -0.090 0.656 -04° 19' 53.70" 1.000E-01 0.500 F 0.077 -1.196 o 691 2.74 Yes No
1998QB28 O C H 2010-10-01.20358 1.000E-05 00:33:18.880 1.500E-01 0.500 F -0.135 -0.640 +04° 49' 05.30" 1.000E-01 0.500 F 0.172 -0.748 21.0 V 0.70 0.05 o 691 1.98 Yes Yes
2010RP80 O C t 2010-10-01.20358 1.000E-05 00:36:18.920 1.500E-01 0.500 F -0.195 0.550 +05° 33' 18.70" 1.000E-01 0.500 F 0.188 -0.527 18.2 V 0.70 0.09 o 691 1.53 Yes Yes
2010TD O C 2010-10-01.20604 1.000E-05 00:38:24.910 1.500E-01 0.500 F -0.178 -0.765 +04° 19' 29.10" 1.000E-01 0.500 F 0.071 0.191 21.5 V 0.70 0.65 o 691 1.78 Yes Yes
1998QB28 O C H 2010-10-01.22122 1.000E-05 00:33:17.560 1.500E-01 0.500 F -0.135 -0.422 +04° 48' 59.00" 1.000E-01 0.500 F 0.172 0.206 21.2 V 0.70 0.26 o 691 0.94 Yes Yes
2010TD O C 2010-10-01.22369 1.000E-05 00:38:26.120 1.500E-01 0.500 F -0.178 0.168 +04° 18' 26.00" 1.000E-01 0.500 F 0.071 1.060 20.7 V 0.70 -0.16 o 691 2.33 Yes Yes
1998QB28 O C H 2010-10-01.23887 1.000E-05 00:33:16.300 1.500E-01 0.500 F -0.135 0.761 +04° 48' 50.60" 1.000E-01 0.500 F 0.172 -0.928 o 691 2.41 Yes No
2010TD O C 2010-10-01.24133 1.000E-05 00:38:27.200 1.500E-01 0.500 F -0.178 0.195 +04° 17' 21.20" 1.000E-01 0.500 F 0.071 -0.148 20.8 V 0.70 -0.07 o 691 0.54 Yes Yes
2010KY39 O C 2010-10-01.26563 1.000E-05 00:51:32.890 1.500E-01 0.500 F -0.180 0.012 +02° 43' 21.70" 1.000E-01 0.500 F 0.241 0.066 19.6 V 0.70 0.17 o 691 0.14 Yes Yes
2010KY39 O C 2010-10-01.28327 1.000E-05 00:51:31.760 1.500E-01 0.500 F -0.180 -0.156 +02° 42' 22.60" 1.000E-01 0.500 F 0.241 -0.057 19.5 V 0.70 0.07 o 691 0.34 Yes Yes
2010KY39 O C 2010-10-01.30092 1.000E-05 00:51:30.630 1.500E-01 0.500 F -0.180 -0.275 +02° 41' 23.60" 1.000E-01 0.500 F 0.241 -0.061 19.5 V 0.70 0.07 o 691 0.58 Yes Yes
2000NF5 O C H 2010-10-02.15096 1.000E-05 00:09:18.900 1.500E-01 0.500 F -0.105 -0.269 +04° 47' 25.00" 1.000E-01 0.500 F 0.253 0.039 o 691 0.54 Yes No
2010RQ80 O C t 2010-10-02.16628 1.000E-05 23:56:32.190 1.500E-01 0.500 F -0.087 0.229 +05° 26' 01.60" 1.000E-01 0.500 F 0.281 0.233 o 691 0.67 Yes No
2000NF5 O C H 2010-10-02.16880 1.000E-05 00:09:17.930 1.500E-01 0.500 F -0.105 -0.193 +04° 47' 17.50" 1.000E-01 0.500 F 0.253 -0.087 o 691 0.42 Yes No
1998NU O C H 2010-10-02.16880 1.000E-05 00:05:06.670 1.500E-01 0.500 F -0.185 -0.630 +04° 37' 44.90" 1.000E-01 0.500 F 0.300 0.172 o 691 1.30 Yes No
2001FD90 O C H 2010-10-02.17126 1.000E-05 00:14:49.420 1.500E-01 0.500 F -0.195 -0.089 +05° 43' 18.90" 1.000E-01 0.500 F 0.187 -0.427 21.0 V 0.70 0.17 o 691 0.88 Yes Yes
2010RQ80 O C t 2010-10-02.18413 1.000E-05 23:56:34.530 1.500E-01 0.500 F -0.087 0.297 +05° 25' 41.50" 1.000E-01 0.500 F 0.281 -0.570 20.8 V 0.70 0.28 o 691 1.32 Yes Yes
2000NF5 O C H 2010-10-02.18665 1.000E-05 00:09:16.940 1.500E-01 0.500 F -0.105 -0.312 +04° 47' 10.20" 1.000E-01 0.500 F 0.253 -0.002 o 691 0.63 Yes No
1998NU O C H 2010-10-02.18665 1.000E-05 00:05:05.670 1.500E-01 0.500 F -0.185 -0.084 +04° 37' 37.90" 1.000E-01 0.500 F 0.300 -0.375 o 691 0.77 Yes No
2001FD90 O C H 2010-10-02.18912 1.000E-05 00:14:48.110 1.500E-01 0.500 F -0.195 -0.188 +05° 43' 05.00" 1.000E-01 0.500 F 0.187 -0.082 o 691 0.41 Yes No
2010SY3 O C H 2010-10-02.22627 1.000E-05 00:28:57.830 1.500E-01 0.500 F -0.156 1.226 +07° 47' 51.30" 1.000E-01 0.500 F 0.313 0.647 21.2 V 0.70 0.37 o 691 2.88 Yes Yes
2010SY3 O C H 2010-10-02.24390 1.000E-05 00:28:59.360 1.500E-01 0.500 F -0.156 0.851 +07° 47' 28.20" 1.000E-01 0.500 F 0.313 -0.180 21.1 V 0.70 0.27 o 691 1.84 Yes Yes
2010TK O C 2010-10-02.32017 1.000E-05 01:03:59.740 1.500E-01 0.500 F -0.157 -0.084 +12° 39' 54.90" 1.000E-01 0.500 F 0.342 0.120 20.9 V 0.70 -0.04 o 691 0.30 Yes Yes
2010RB130 O C 2010-10-02.32760 1.000E-05 01:28:09.790 1.500E-01 0.500 F -0.224 0.222 +11° 45' 17.90" 1.000E-01 0.500 F 0.290 -0.188 19.9 V 0.70 0.08 o 691 0.59 Yes Yes
2010RA147 O C 2010-10-02.33278 1.000E-05 01:16:29.460 1.500E-01 0.500 F -0.188 -0.089 +09° 33' 51.60" 1.000E-01 0.500 F 0.281 0.128 20.2 V 0.70 0.32 o 691 0.32 Yes Yes
2010TK O C 2010-10-02.33788 1.000E-05 01:03:59.750 1.500E-01 0.500 F -0.157 -0.350 +12° 40' 28.10" 1.000E-01 0.500 F 0.342 -0.233 20.6 V 0.70 -0.33 o 691 0.86 Yes Yes
2010RB130 O C 2010-10-02.34532 1.000E-05 01:28:13.790 1.500E-01 0.500 F -0.224 0.138 +11° 45' 54.70" 1.000E-01 0.500 F 0.290 0.045 19.8 V 0.70 -0.02 o 691 0.30 Yes Yes
2010RA147 O C 2010-10-02.35050 1.000E-05 01:16:27.710 1.500E-01 0.500 F -0.188 -0.245 +09° 33' 50.30" 1.000E-01 0.500 F 0.281 0.106 20.3 V 0.70 0.43 o 691 0.54 Yes Yes
2010TK O C 2010-10-02.35561 1.000E-05 01:03:59.780 1.500E-01 0.500 F -0.157 -0.407 +12° 41' 01.60" 1.000E-01 0.500 F 0.342 -0.166 20.6 V 0.70 -0.33 o 691 0.90 Yes Yes
2010RB130 O C 2010-10-02.36302 1.000E-05 01:28:17.780 1.500E-01 0.500 F -0.224 0.059 +11° 46' 30.60" 1.000E-01 0.500 F 0.290 -0.272 19.7 V 0.70 -0.13 o 691 0.57 Yes Yes
2010RA147 O C 2010-10-02.36821 1.000E-05 01:16:25.960 1.500E-01 0.500 F -0.188 -0.410 +09° 33' 48.90" 1.000E-01 0.500 F 0.281 0.013 20.2 V 0.70 0.33 o 691 0.83 Yes Yes
2010OC103 O C 2010-10-02.38236 1.000E-05 01:33:49.230 1.500E-01 0.500 F -0.144 -0.148 +08° 55' 25.20" 1.000E-01 0.500 F 0.260 -0.066 20.8 V 0.70 -0.41 o 691 0.33 Yes Yes
2004EB O C 2010-10-02.38482 1.000E-05 01:40:25.850 1.500E-01 0.500 F -0.153 -0.209 +08° 14' 00.00" 1.000E-01 0.500 F 0.247 0.073 20.7 V 0.70 -0.09 o 691 0.44 Yes Yes
Hephaistos O C 2010-10-02.38974 1.000E-05 01:54:37.710 1.500E-01 0.500 F -0.152 -0.133 +07° 31' 15.30" 1.000E-01 0.500 F 0.218 0.103 15.8 V 0.70 0.51 o 691 0.34 Yes Yes
Mithra O C 2010-10-02.39729 1.000E-05 01:54:04.450 1.500E-01 0.500 F -0.117 -0.037 +06° 21' 18.30" 1.000E-01 0.500 F 0.157 -0.750 18.2 V 0.70 0.16 o 691 1.50 Yes Yes
2010OC103 O C 2010-10-02.39999 1.000E-05 01:33:46.610 1.500E-01 0.500 F -0.144 -0.624 +08° 55' 20.90" 1.000E-01 0.500 F 0.260 0.079 21.2 V 0.70 0.00 o 691 1.26 Yes Yes
2004EB O C 2010-10-02.40246 1.000E-05 01:40:24.400 1.500E-01 0.500 F -0.153 -0.165 +08° 13' 58.90" 1.000E-01 0.500 F 0.247 -0.061 20.6 V 0.70 -0.19 o 691 0.35 Yes Yes
Hephaistos O C 2010-10-02.40738 1.000E-05 01:54:34.800 1.500E-01 0.500 F -0.152 -0.247 +07° 31' 05.70" 1.000E-01 0.500 F 0.218 0.063 15.8 V 0.70 0.51 o 691 0.51 Yes Yes
Mithra O C 2010-10-02.41492 1.000E-05 01:54:02.660 1.500E-01 0.500 F -0.117 -0.173 +06° 21' 09.50" 1.000E-01 0.500 F 0.157 -0.439 18.3 V 0.70 0.26 o 691 0.94 Yes Yes
2010OC103 O C 2010-10-02.41763 1.000E-05 01:33:44.060 1.500E-01 0.500 F -0.144 -0.062 +08° 55' 16.20" 1.000E-01 0.500 F 0.260 -0.157 21.1 V 0.70 -0.10 o 691 0.34 Yes Yes
2004EB O C 2010-10-02.42009 1.000E-05 01:40:22.980 1.500E-01 0.500 F -0.153 0.296 +08° 13' 57.80" 1.000E-01 0.500 F 0.247 -0.187 20.4 V 0.70 -0.39 o 691 0.70 Yes Yes
Hephaistos O C 2010-10-02.42501 1.000E-05 01:54:31.920 1.500E-01 0.500 F -0.152 0.027 +07° 30' 56.10" 1.000E-01 0.500 F 0.218 0.029 15.8 V 0.70 0.51 o 691 0.08 Yes Yes
Mithra O C 2010-10-02.43255 1.000E-05 01:54:00.880 1.500E-01 0.500 F -0.117 -0.185 +06° 21' 00.80" 1.000E-01 0.500 F 0.157 -0.020 18.3 V 0.70 0.26 o 691 0.37 Yes Yes
2004BV1 O C 2010-10-02.44882 1.000E-05 06:31:56.440 1.500E-01 0.500 F -0.158 -0.013 +02° 47' 17.90" 1.000E-01 0.500 F 0.047 0.013 20.4 V 0.70 -0.21 o 691 0.04 Yes Yes
2004BV1 O C 2010-10-02.46750 1.000E-05 06:31:57.640 1.500E-01 0.500 F -0.158 1.210 +02° 47' 20.50" 1.000E-01 0.500 F 0.047 -0.817 20.3 V 0.70 -0.31 o 691 2.93 Yes Yes
2004BV1 O C 2010-10-02.48617 1.000E-05 06:31:58.660 1.500E-01 0.500 F -0.158 -0.155 +02° 47' 24.60" 1.000E-01 0.500 F 0.047 -0.140 20.9 V 0.70 0.29 o 691 0.42 Yes Yes
1997GH28 O C 2010-10-03.25810 1.000E-05 00:42:57.560 1.500E-01 0.500 F -0.182 2.317 +09° 59' 07.80" 1.000E-01 0.500 F 0.281 -0.843 18.2 V 0.70 -0.21 o 691 4.92 No Yes
1997GH28 O C 2010-10-03.28228 1.000E-05 00:42:55.270 1.500E-01 0.500 F -0.182 -0.174 +09° 59' 09.90" 1.000E-01 0.500 F 0.281 -0.054 18.7 V 0.70 0.29 o 691 0.36 Yes Yes
1997GH28 O C 2010-10-03.30002 1.000E-05 00:42:53.710 1.500E-01 0.500 F -0.182 -0.192 +09° 59' 10.80" 1.000E-01 0.500 F 0.281 -0.085 18.6 V 0.70 0.19 o 691 0.42 Yes Yes
2010TK O C 2010-10-03.32132 1.000E-05 01:04:40.080 1.500E-01 0.500 F -0.143 -0.315 +13° 13' 43.00" 1.000E-01 0.500 F 0.372 -0.128 20.7 V 0.70 -0.06 o 691 0.70 Yes Yes
2010TK O C 2010-10-03.33909 1.000E-05 01:04:40.160 1.500E-01 0.500 F -0.143 0.023 +13° 14' 21.40" 1.000E-01 0.500 F 0.372 -0.135 20.6 V 0.70 -0.15 o 691 0.28 Yes Yes
2010TK O C 2010-10-03.35681 1.000E-05 01:04:40.240 1.500E-01 0.500 F -0.143 0.246 +13° 14' 59.50" 1.000E-01 0.500 F 0.372 -0.165 20.6 V 0.70 -0.15 o 691 0.61 Yes Yes
2010TU5 O C 2010-10-03.41063 1.000E-05 01:22:51.340 1.500E-01 0.500 F -0.183 -0.629 +10° 09' 25.20" 1.000E-01 0.500 F 0.237 -0.168 21.6 V 0.70 0.13 o 691 1.31 Yes Yes
2010TU5 O C 2010-10-03.42091 1.000E-05 01:22:50.570 1.500E-01 0.500 F -0.183 -0.269 +10° 09' 16.60" 1.000E-01 0.500 F 0.237 -0.180 21.6 V 0.70 0.13 o 691 0.65 Yes Yes
2010TU5 O C 2010-10-03.43119 1.000E-05 01:22:49.780 1.500E-01 0.500 F -0.183 -0.215 +10° 09' 08.30" 1.000E-01 0.500 F 0.237 0.113 21.7 V 0.70 0.23 o 691 0.49 Yes Yes
2002XR14 O C H 2010-10-03.49077 1.000E-05 06:51:45.850 1.500E-01 0.500 F -0.097 -0.282 +22° 37' 22.30" 1.000E-01 0.500 F 0.155 -0.996 o 691 2.07 Yes No
2002XR14 O C H 2010-10-03.50349 1.000E-05 06:51:47.440 1.500E-01 0.500 F -0.097 0.518 +22° 37' 21.40" 1.000E-01 0.500 F 0.155 -0.545 o 691 1.51 Yes No
2002XR14 O C H 2010-10-03.51620 1.000E-05 06:51:48.950 1.500E-01 0.500 F -0.097 0.237 +22° 37' 19.90" 1.000E-01 0.500 F 0.155 -0.682 o 691 1.45 Yes No
1998OR2 O C H 2010-10-04.15042 1.000E-05 00:39:20.780 1.500E-01 0.500 F -0.182 -0.085 +01° 37' 14.50" 1.000E-01 0.500 F 0.324 -1.283 o 691 2.57 Yes No
1998OR2 O C H 2010-10-04.16808 1.000E-05 00:39:19.820 1.500E-01 0.500 F -0.182 0.204 +01° 37' 10.00" 1.000E-01 0.500 F 0.324 -0.544 o 691 1.16 Yes No
2006SZ217 O C H 2010-10-07.10769 1.000E-05 18:43:29.040 1.500E-01 0.500 F 0.072 1.088 +22° 41' 51.60" 1.000E-01 0.500 F 0.193 1.847 o 691 4.25 No No
2006SZ217 O C H 2010-10-07.12495 1.000E-05 18:43:30.870 1.500E-01 0.500 F 0.072 0.680 +22° 41' 38.70" 1.000E-01 0.500 F 0.193 1.823 o 691 3.86 No No
2006SZ217 O C H 2010-10-07.14527 1.000E-05 18:43:33.070 1.500E-01 0.500 F 0.072 0.758 +22° 41' 23.40" 1.000E-01 0.500 F 0.193 1.724 o 691 3.74 No No
1997GH28 O C 2010-10-07.28930 1.000E-05 00:37:11.400 1.500E-01 0.500 F -0.170 -0.158 +10° 01' 34.50" 1.000E-01 0.500 F 0.265 0.022 19.1 V 0.70 0.79 o 691 0.31 Yes Yes
1997GH28 O C 2010-10-07.30702 1.000E-05 00:37:09.750 1.500E-01 0.500 F -0.170 -0.332 +10° 01' 34.80" 1.000E-01 0.500 F 0.265 -0.050 19.0 V 0.70 0.69 o 691 0.67 Yes Yes
1997GH28 O C 2010-10-07.32474 1.000E-05 00:37:08.110 1.500E-01 0.500 F -0.170 -0.366 +10° 01' 35.10" 1.000E-01 0.500 F 0.265 -0.096 18.9 V 0.70 0.59 o 691 0.75 Yes Yes
1997WS22 O C H 2010-10-07.48554 1.000E-05 07:02:42.390 1.500E-01 0.500 F -0.115 -0.046 +22° 47' 28.20" 1.000E-01 0.500 F 0.203 -0.621 19.9 V 0.70 -0.05 o 691 1.25 Yes Yes
1997WS22 O C H 2010-10-07.50170 1.000E-05 07:02:44.460 1.500E-01 0.500 F -0.115 0.114 +22° 47' 44.00" 1.000E-01 0.500 F 0.203 -0.229 20.2 V 0.70 0.26 o 691 0.51 Yes Yes
1998NU O C 2010-10-08.14873 1.000E-05 23:59:30.920 1.500E-01 0.500 F -0.181 -0.696 +04° 01' 28.50" 1.000E-01 0.500 F 0.256 0.160 20.5 V 0.70 -0.09 o 691 1.43 Yes Yes
2000NF5 O C 2010-10-08.14873 1.000E-05 00:04:42.990 1.500E-01 0.500 F -0.185 -0.227 +04° 08' 02.00" 1.000E-01 0.500 F 0.300 -0.003 17.5 V 0.70 0.69 o 691 0.46 Yes Yes
2010RQ80 O C 2010-10-08.16484 1.000E-05 00:11:31.050 1.500E-01 0.500 F -0.252 -0.663 +03° 32' 19.70" 1.000E-01 0.500 F 0.171 -0.203 20.4 V 0.70 -0.11 o 691 1.44 Yes Yes
2000NF5 O C 2010-10-08.17004 1.000E-05 00:04:42.040 1.500E-01 0.500 F -0.185 -0.367 +04° 07' 54.30" 1.000E-01 0.500 F 0.300 0.023 17.5 V 0.70 0.69 o 691 0.74 Yes Yes
1998NU O C 2010-10-08.17004 1.000E-05 23:59:29.760 1.500E-01 0.500 F -0.181 -0.156 +04° 01' 20.70" 1.000E-01 0.500 F 0.256 0.079 20.5 V 0.70 -0.09 o 691 0.35 Yes Yes
2010RQ80 O C 2010-10-08.18616 1.000E-05 00:11:34.190 1.500E-01 0.500 F -0.252 -0.092 +03° 31' 55.00" 1.000E-01 0.500 F 0.171 -0.249 20.5 V 0.70 -0.01 o 691 0.55 Yes Yes
2000NF5 O C 2010-10-08.19133 1.000E-05 00:04:41.100 1.500E-01 0.500 F -0.185 -0.268 +04° 07' 46.50" 1.000E-01 0.500 F 0.300 -0.051 17.4 V 0.70 0.59 o 691 0.55 Yes Yes
1998NU O C 2010-10-08.19133 1.000E-05 23:59:28.520 1.500E-01 0.500 F -0.181 -0.800 +04° 01' 13.00" 1.000E-01 0.500 F 0.256 0.095 20.6 V 0.70 0.01 o 691 1.61 Yes Yes
2010RQ80 O C 2010-10-08.20398 1.000E-05 00:11:36.790 1.500E-01 0.500 F -0.252 0.251 +03° 31' 34.50" 1.000E-01 0.500 F 0.171 -0.117 20.4 V 0.70 -0.11 o 691 0.58 Yes Yes
2004EB O C 2010-10-08.36260 1.000E-05 01:32:20.570 1.500E-01 0.500 F -0.159 -0.413 +08° 07' 46.70" 1.000E-01 0.500 F 0.242 0.085 20.6 V 0.70 -0.10 o 691 0.85 Yes Yes
Mithra O C 2010-10-08.37262 1.000E-05 01:44:13.500 1.500E-01 0.500 F -0.140 -0.251 +05° 30' 26.00" 1.000E-01 0.500 F 0.212 0.078 18.3 V 0.70 0.33 o 691 0.53 Yes Yes
Hephaistos O C 2010-10-08.37262 1.000E-05 01:38:55.700 1.500E-01 0.500 F -0.216 0.000 +06° 37' 54.30" 1.000E-01 0.500 F 0.212 -0.026 15.9 V 0.70 0.66 o 691 0.05 Yes Yes
2004EB O C 2010-10-08.37771 1.000E-05 01:32:19.290 1.500E-01 0.500 F -0.159 -0.773 +08° 07' 45.10" 1.000E-01 0.500 F 0.242 -0.446 20.7 V 0.70 0.00 o 691 1.80 Yes Yes
Mithra O C 2010-10-08.38772 1.000E-05 01:44:11.980 1.500E-01 0.500 F -0.140 -0.103 +05° 30' 18.50" 1.000E-01 0.500 F 0.212 0.182 18.4 V 0.70 0.43 o 691 0.42 Yes Yes
Hephaistos O C 2010-10-08.38772 1.000E-05 01:38:53.340 1.500E-01 0.500 F -0.216 -0.153 +06° 37' 46.30" 1.000E-01 0.500 F 0.212 -0.083 15.9 V 0.70 0.67 o 691 0.35 Yes Yes
2004EB O C 2010-10-08.39280 1.000E-05 01:32:18.040 1.500E-01 0.500 F -0.159 -0.726 +08° 07' 44.60" 1.000E-01 0.500 F 0.242 0.127 20.7 V 0.70 0.00 o 691 1.48 Yes Yes
Mithra O C 2010-10-08.40281 1.000E-05 01:44:10.440 1.500E-01 0.500 F -0.140 -0.288 +05° 30' 10.70" 1.000E-01 0.500 F 0.212 -0.015 18.4 V 0.70 0.43 o 691 0.58 Yes Yes
Hephaistos O C 2010-10-08.40281 1.000E-05 01:38:51.000 1.500E-01 0.500 F -0.216 -0.061 +06° 37' 38.40" 1.000E-01 0.500 F 0.212 -0.040 15.9 V 0.70 0.67 o 691 0.15 Yes Yes
1998OR2 O C 2010-10-09.19157 1.000E-05 00:34:46.800 1.500E-01 0.500 F -0.220 -0.780 +01° 12' 41.10" 1.000E-01 0.500 F 0.276 -0.052 21.1 V 0.70 -0.10 o 691 1.57 Yes Yes
1998OR2 O C 2010-10-09.21616 1.000E-05 00:34:45.460 1.500E-01 0.500 F -0.220 -0.677 +01° 12' 33.90" 1.000E-01 0.500 F 0.276 -0.205 20.9 V 0.70 -0.30 o 691 1.42 Yes Yes
1998OR2 O C 2010-10-09.23730 1.000E-05 00:34:44.290 1.500E-01 0.500 F -0.220 -0.837 +01° 12' 27.90" 1.000E-01 0.500 F 0.276 -0.146 21.2 V 0.70 0.00 o 691 1.70 Yes Yes
2010RA147 O C 2010-10-09.32394 1.000E-05 01:03:51.400 1.500E-01 0.500 F -0.076 -0.358 +09° 20' 33.50" 1.000E-01 0.500 F 0.339 -0.203 19.6 V 0.70 0.38 o 691 0.83 Yes Yes
2010RA147 O C 2010-10-09.34168 1.000E-05 01:03:49.120 1.500E-01 0.500 F -0.076 -0.063 +09° 20' 30.80" 1.000E-01 0.500 F 0.339 -0.061 19.7 V 0.70 0.48 o 691 0.18 Yes Yes
2010RA147 O C 2010-10-09.35937 1.000E-05 01:03:46.830 1.500E-01 0.500 F -0.076 -0.028 +09° 20' 28.00" 1.000E-01 0.500 F 0.339 0.003 19.5 V 0.70 0.28 o 691 0.06 Yes Yes
2007RU17 O C 2010-10-09.37427 1.000E-05 01:45:43.830 1.500E-01 0.500 F -0.144 -0.222 +11° 55' 59.70" 1.000E-01 0.500 F 0.206 -0.083 17.1 V 0.70 0.15 o 691 0.48 Yes Yes
2007RU17 O C 2010-10-09.39197 1.000E-05 01:45:40.090 1.500E-01 0.500 F -0.144 -0.187 +11° 56' 01.70" 1.000E-01 0.500 F 0.206 -0.142 17.1 V 0.70 0.15 o 691 0.47 Yes Yes
2007RU17 O C 2010-10-09.40972 1.000E-05 01:45:36.340 1.500E-01 0.500 F -0.144 -0.145 +11° 56' 03.80" 1.000E-01 0.500 F 0.206 -0.049 17.2 V 0.70 0.26 o 691 0.31 Yes Yes
1997WS22 O C 2010-10-09.44368 1.000E-05 07:06:57.450 1.500E-01 0.500 F -0.093 -0.296 +23° 18' 46.10" 1.000E-01 0.500 F 0.218 -0.125 20.0 V 0.70 0.09 o 691 0.64 Yes Yes
1997WS22 O C 2010-10-09.45702 1.000E-05 07:06:59.130 1.500E-01 0.500 F -0.093 -0.539 +23° 18' 59.50" 1.000E-01 0.500 F 0.218 0.152 19.7 V 0.70 -0.21 o 691 1.12 Yes Yes
1997WS22 O C 2010-10-09.47038 1.000E-05 07:07:00.850 1.500E-01 0.500 F -0.093 -0.233 +23° 19' 12.30" 1.000E-01 0.500 F 0.218 -0.177 19.8 V 0.70 -0.11 o 691 0.59 Yes Yes
2010RP80 O C 2010-10-10.25575 1.000E-05 01:08:26.060 1.500E-01 0.500 F -0.207 -0.300 +01° 52' 53.40" 1.000E-01 0.500 F 0.249 -0.390 18.0 V 0.70 0.14 o 691 0.99 Yes Yes
2010RP80 O C 2010-10-10.27687 1.000E-05 01:08:30.760 1.500E-01 0.500 F -0.207 -0.256 +01° 52' 18.90" 1.000E-01 0.500 F 0.249 -0.252 17.9 V 0.70 0.04 o 691 0.73 Yes Yes
2010RP80 O C 2010-10-10.29454 1.000E-05 01:08:34.690 1.500E-01 0.500 F -0.207 -0.177 +01° 51' 49.80" 1.000E-01 0.500 F 0.249 -0.344 19.2 V 0.70 1.34 o 691 0.78 Yes Yes
2005TB15 O C 2010-10-10.37544 1.000E-05 01:45:52.830 1.500E-01 0.500 F -0.267 -0.470 +15° 51' 57.30" 1.000E-01 0.500 F 0.234 -0.148 19.3 V 0.70 0.17 o 691 0.99 Yes Yes
2005TB15 O C 2010-10-10.39312 1.000E-05 01:45:49.890 1.500E-01 0.500 F -0.267 -0.187 +15° 51' 59.80" 1.000E-01 0.500 F 0.234 0.033 19.3 V 0.70 0.17 o 691 0.38 Yes Yes
2005TB15 O C 2010-10-10.41084 1.000E-05 01:45:46.900 1.500E-01 0.500 F -0.267 -0.555 +15° 52' 02.10" 1.000E-01 0.500 F 0.234 0.065 19.2 V 0.70 0.07 o 691 1.12 Yes Yes
2010RQ80 O C 2010-10-11.15741 1.000E-05 00:19:31.540 1.500E-01 0.500 F -0.152 0.113 +02° 34' 17.80" 1.000E-01 0.500 F 0.280 -0.342 21.1 V 0.70 0.56 o 691 0.75 Yes Yes
2010RQ80 O C 2010-10-11.17509 1.000E-05 00:19:34.160 1.500E-01 0.500 F -0.152 -0.929 +02° 33' 58.80" 1.000E-01 0.500 F 0.280 1.031 20.3 V 0.70 -0.24 o 691 2.90 Yes Yes
2010RQ80 O C 2010-10-11.19275 1.000E-05 00:19:36.900 1.500E-01 0.500 F -0.152 0.101 +02° 33' 37.80" 1.000E-01 0.500 F 0.280 0.394 20.4 V 0.70 -0.14 o 691 0.85 Yes Yes
1997GH28 O C 2010-10-11.20942 1.000E-05 00:31:22.710 1.500E-01 0.500 F -0.088 -1.084 +10° 02' 10.60" 1.000E-01 0.500 F 0.229 0.251 18.4 V 0.70 0.06 o 691 2.23 Yes Yes
1997GH28 O C 2010-10-11.22713 1.000E-05 00:31:21.100 1.500E-01 0.500 F -0.088 -0.228 +10° 02' 10.40" 1.000E-01 0.500 F 0.229 0.009 18.6 V 0.70 0.26 o 691 0.45 Yes Yes
1997GH28 O C 2010-10-11.24485 1.000E-05 00:31:19.430 1.500E-01 0.500 F -0.088 -0.200 +10° 02' 10.40" 1.000E-01 0.500 F 0.229 -0.009 18.7 V 0.70 0.36 o 691 0.40 Yes Yes
2010TL117 O C 2010-10-11.31711 1.000E-05 01:45:39.720 1.500E-01 0.500 F -0.140 -0.207 +05° 46' 53.60" 1.000E-01 0.500 F 0.212 -0.025 21.3 V 0.70 -0.13 o 691 0.42 Yes Yes
Mithra O C 2010-10-11.31711 1.000E-05 01:39:24.770 1.500E-01 0.500 F -0.245 0.077 +05° 06' 07.10" 1.000E-01 0.500 F 0.186 0.012 18.2 V 0.70 0.27 o 691 0.16 Yes Yes
2003SJ154 O C 2010-10-11.32969 1.000E-05 01:50:40.410 1.500E-01 0.500 F -0.187 -0.546 +03° 52' 52.00" 1.000E-01 0.500 F 0.226 -0.705 20.9 V 0.70 0.55 o 691 1.79 Yes Yes
Mithra O C 2010-10-11.33477 1.000E-05 01:39:22.990 1.500E-01 0.500 F -0.245 -0.137 +05° 05' 58.50" 1.000E-01 0.500 F 0.186 0.021 18.3 V 0.70 0.37 o 691 0.28 Yes Yes
2010TL117 O C 2010-10-11.33477 1.000E-05 01:45:38.710 1.500E-01 0.500 F -0.140 -0.305 +05° 46' 28.50" 1.000E-01 0.500 F 0.212 -0.278 21.7 V 0.70 0.28 o 691 0.83 Yes Yes
2003SJ154 O C 2010-10-11.34736 1.000E-05 01:50:38.780 1.500E-01 0.500 F -0.187 -0.077 +03° 52' 53.70" 1.000E-01 0.500 F 0.226 -0.135 20.2 V 0.70 -0.15 o 691 0.31 Yes Yes
Mithra O C 2010-10-11.34995 1.000E-05 01:39:21.470 1.500E-01 0.500 F -0.245 -0.177 +05° 05' 51.20" 1.000E-01 0.500 F 0.186 0.125 18.3 V 0.70 0.37 o 691 0.43 Yes Yes
2010TL117 O C 2010-10-11.34995 1.000E-05 01:45:37.940 1.500E-01 0.500 F -0.140 1.079 +05° 46' 08.50" 1.000E-01 0.500 F 0.212 1.092 21.2 V 0.70 -0.22 o 691 3.09 Yes Yes
2003SJ154 O C 2010-10-11.36255 1.000E-05 01:50:37.330 1.500E-01 0.500 F -0.187 -0.413 +03° 52' 55.00" 1.000E-01 0.500 F 0.226 0.199 20.2 V 0.70 -0.15 o 691 0.92 Yes Yes
2010OC101 O C 2010-10-11.49359 1.000E-05 09:21:31.590 1.500E-01 0.500 F -0.065 -0.799 +54° 47' 17.60" 1.000E-01 0.500 F 0.334 -0.936 20.3 V 0.70 -0.89 o 691 2.49 Yes Yes
2010LU134 O C 2010-10-11.49359 1.000E-05 09:22:49.850 1.500E-01 0.500 F -0.032 -0.329 +54° 09' 13.00" 1.000E-01 0.500 F 0.299 0.588 20.9 V 0.70 -0.46 o 691 1.39 Yes Yes
2010OC101 O C 2010-10-11.49700 1.000E-05 09:21:31.640 1.500E-01 0.500 F -0.065 -0.612 +54° 47' 12.80" 1.000E-01 0.500 F 0.334 0.942 20.7 V 0.70 -0.49 o 691 2.25 Yes Yes
2010LU134 O C 2010-10-11.49700 1.000E-05 09:22:50.430 1.500E-01 0.500 F -0.032 -0.678 +54° 09' 14.00" 1.000E-01 0.500 F 0.299 0.397 21.2 V 0.70 -0.16 o 691 1.62 Yes Yes
2010OC101 O C 2010-10-11.50146 1.000E-05 09:21:31.740 1.500E-01 0.500 F -0.065 -0.055 +54° 47' 03.50" 1.000E-01 0.500 F 0.334 0.384 20.6 V 0.70 -0.58 o 691 0.78 Yes Yes
2010LU134 O C 2010-10-11.50146 1.000E-05 09:22:51.270 1.500E-01 0.500 F -0.032 -0.413 +54° 09' 15.40" 1.000E-01 0.500 F 0.299 0.243 21.3 V 0.70 -0.06 o 691 0.99 Yes Yes
2000NF5 O C 2010-10-12.15349 1.000E-05 00:02:17.280 1.500E-01 0.500 F -0.210 -0.370 +03° 45' 06.60" 1.000E-01 0.500 F 0.265 -0.114 17.0 V 0.70 -0.05 o 691 0.78 Yes Yes
2000NF5 O C 2010-10-12.17135 1.000E-05 00:02:16.640 1.500E-01 0.500 F -0.210 -0.336 +03° 45' 01.00" 1.000E-01 0.500 F 0.265 -0.051 17.0 V 0.70 -0.05 o 691 0.68 Yes Yes
2000NF5 O C 2010-10-12.18922 1.000E-05 00:02:16.000 1.500E-01 0.500 F -0.210 -0.238 +03° 44' 55.20" 1.000E-01 0.500 F 0.265 -0.180 16.9 V 0.70 -0.15 o 691 0.60 Yes Yes
2010TM55 O C 2010-10-12.33404 1.000E-05 01:22:00.200 1.500E-01 0.500 F -0.302 -0.059 +05° 44' 18.50" 1.000E-01 0.500 F 0.214 0.039 21.7 V 0.70 0.30 o 691 0.18 Yes Yes
Hephaistos O C 2010-10-12.33650 1.000E-05 01:29:07.830 1.500E-01 0.612 F -0.189 -0.255 +06° 04' 05.90" 1.000E-01 0.612 F 0.240 0.059 15.6 V 0.70 0.42 o 691 0.43 Yes Yes
2010TM55 O C 2010-10-12.35171 1.000E-05 01:22:00.940 1.500E-01 0.500 F -0.302 0.367 +05° 44' 07.90" 1.000E-01 0.500 F 0.214 -0.119 21.4 V 0.70 0.00 o 691 0.93 Yes Yes
Hephaistos O C 2010-10-12.35419 1.000E-05 01:29:05.230 1.500E-01 0.612 F -0.189 -0.327 +06° 03' 57.00" 1.000E-01 0.612 F 0.240 -0.031 15.6 V 0.70 0.42 o 691 0.54 Yes Yes
2010TM55 O C 2010-10-12.36940 1.000E-05 01:22:01.620 1.500E-01 0.500 F -0.302 -0.185 +05° 43' 57.80" 1.000E-01 0.500 F 0.214 0.263 20.9 V 0.70 -0.50 o 691 0.79 Yes Yes
Hephaistos O C 2010-10-12.37186 1.000E-05 01:29:02.640 1.500E-01 0.612 F -0.189 -0.327 +06° 03' 48.20" 1.000E-01 0.612 F 0.240 -0.023 15.6 V 0.70 0.42 o 691 0.54 Yes Yes
Hephaistos O C 2010-10-12.38689 1.000E-05 01:29:00.450 1.500E-01 0.612 F -0.189 -0.167 +06° 03' 40.70" 1.000E-01 0.612 F 0.240 -0.027 15.7 V 0.70 0.52 o 691 0.28 Yes Yes
Mithra O C 2010-10-12.38935 1.000E-05 01:37:40.600 1.500E-01 0.500 F -0.245 -0.165 +04° 57' 28.00" 1.000E-01 0.500 F 0.186 0.076 18.4 V 0.70 0.48 o 691 0.36 Yes Yes
Hephaistos O C 2010-10-12.40457 1.000E-05 01:28:57.870 1.500E-01 0.612 F -0.189 -0.085 +06° 03' 31.90" 1.000E-01 0.612 F 0.240 -0.003 15.7 V 0.70 0.52 o 691 0.14 Yes Yes
Mithra O C 2010-10-12.40705 1.000E-05 01:37:38.810 1.500E-01 0.500 F -0.245 -0.755 +04° 57' 20.10" 1.000E-01 0.500 F 0.186 0.713 19.2 V 0.70 1.28 o 691 2.08 Yes Yes
Hephaistos O C 2010-10-12.42225 1.000E-05 01:28:55.280 1.500E-01 0.612 F -0.189 -0.213 +06° 03' 23.00" 1.000E-01 0.612 F 0.240 -0.074 15.7 V 0.70 0.52 o 691 0.37 Yes Yes
Mithra O C 2010-10-12.42472 1.000E-05 01:37:37.090 1.500E-01 0.500 F -0.245 -0.388 +04° 57' 10.80" 1.000E-01 0.500 F 0.186 -0.062 18.4 V 0.70 0.48 o 691 0.79 Yes Yes
2010OC101 O C 2010-10-12.49472 1.000E-05 09:21:50.220 1.500E-01 0.500 F -0.032 -0.262 +54° 13' 00.60" 1.000E-01 0.500 F 0.299 0.230 21.1 V 0.70 -0.08 o 691 0.70 Yes Yes
2010LU134 O C H 2010-10-12.49472 1.000E-05 09:25:53.680 1.500E-01 0.500 F -0.154 0.193 +54° 14' 22.20" 1.000E-01 0.500 F 0.283 -0.262 21.9 V 0.70 0.53 o 691 0.67 Yes Yes
2010OC101 O C 2010-10-12.49763 1.000E-05 09:21:50.220 1.500E-01 0.500 F -0.032 -0.480 +54° 12' 54.40" 1.000E-01 0.500 F 0.299 -0.262 21.6 V 0.70 0.42 o 691 1.11 Yes Yes
2010LU134 O C H 2010-10-12.49763 1.000E-05 09:25:54.220 1.500E-01 0.500 F -0.154 0.383 +54° 14' 23.20" 1.000E-01 0.500 F 0.283 -0.257 21.5 V 0.70 0.13 o 691 0.95 Yes Yes
2010OC101 O C 2010-10-12.50093 1.000E-05 09:21:50.280 1.500E-01 0.500 F -0.032 -0.193 +54° 12' 48.00" 1.000E-01 0.500 F 0.299 -0.184 20.9 V 0.70 -0.28 o 691 0.54 Yes Yes
2010LU134 O C H 2010-10-12.50093 1.000E-05 09:25:54.780 1.500E-01 0.500 F -0.154 0.144 +54° 14' 23.70" 1.000E-01 0.500 F 0.283 -0.884 21.4 V 0.70 0.03 o 691 1.85 Yes Yes
2010RQ80 O C 2010-10-13.20339 1.000E-05 00:25:09.520 1.500E-01 0.500 F -0.126 0.155 +01° 55' 06.20" 1.000E-01 0.500 F 0.250 -0.328 20.6 V 0.70 0.03 o 691 0.76 Yes Yes
2010RQ80 O C 2010-10-13.22108 1.000E-05 00:25:12.220 1.500E-01 0.500 F -0.126 -0.127 +01° 54' 46.40" 1.000E-01 0.500 F 0.250 -0.034 20.4 V 0.70 -0.17 o 691 0.27 Yes Yes
2010RQ80 O C 2010-10-13.24223 1.000E-05 00:25:15.470 1.500E-01 0.500 F -0.126 0.010 +01° 54' 21.30" 1.000E-01 0.500 F 0.250 -1.096 20.5 V 0.70 -0.07 o 691 2.30 Yes Yes
2010TN55 O C 2010-10-13.27465 1.000E-05 00:40:46.130 1.500E-01 0.500 F -0.182 -0.287 +01° 50' 34.50" 1.000E-01 0.500 F 0.324 0.404 20.3 V 0.70 0.00 o 691 1.09 Yes Yes
2010TN55 O C 2010-10-13.29234 1.000E-05 00:40:47.700 1.500E-01 0.500 F -0.182 -0.233 +01° 52' 13.40" 1.000E-01 0.500 F 0.324 0.480 20.2 V 0.70 -0.12 o 691 1.16 Yes Yes
2010TN55 O C 2010-10-13.31002 1.000E-05 00:40:49.270 1.500E-01 0.500 F -0.182 -0.056 +01° 53' 49.50" 1.000E-01 0.500 F 0.324 -0.558 20.0 V 0.70 -0.33 o 691 1.22 Yes Yes

[1-200] [201-400] [401-600] [601-800] [801-1000] [1001-1200] [1201-1400] [1401-1600] [1601-1800] [1801-2000] [2001-2200] [2201-2400] [2401-2600] [2601-2800] [2801-3000] [3001-3200] [3201-3400] [3401-3600] [3601-3800] [3801-4000] [4001-4200] [4201-4400] [4401-4600] [4601-4800] [4801-5000] [5001-5200] [5201-5400] [5401-5600] [5601-5800] [5801-6000] [6001-6200] [6201-6400] [6401-6600] [6601-6800] [6801-7000] [7001-7200] [7201-7400] [7401-7600] [7601-7800] [7801-8000] [8001-8200] [8201-8400] [8401-8600] [8601-8800] [8801-9000] [9001-9200] [9201-9400] [9401-9600] [9601-9800] [9801-10000] [10001-10200] [10201-10400] [10401-10600] [10601-10800] [10801-11000] [11001-11200] [11201-11400] [11401-11600] [11601-11800] [11801-12000] [12001-12200] [12201-12400] [12401-12600] [12601-12800] [12801-13000] [13001-13200] [13201-13400] [13401-13600] [13601-13800] [13801-14000] [14001-14200] [14201-14400] [14401-14600] [14601-14800] [14801-15000] [15001-15200] [15201-15400] [15401-15600] [15601-15800] [15801-16000] [16001-16200] [16201-16400] [16401-16600] [16601-16800] [16801-17000] [17001-17200] [17201-17400] [17401-17600] [17601-17800] [17801-18000] [18001-18200] [18201-18400] [18401-18600] [18601-18800] [18801-19000] [19001-19200] [19201-19400] [19401-19600] [19601-19800] [19801-20000] [20001-20200] [20201-20400] [20401-20600] [20601-20800] [20801-21000] [21001-21200] [21201-21400] [21401-21600] [21601-21800] [21801-22000] [22001-22200] [22201-22400] [22401-22600] [22601-22800] [22801-23000] [23001-23200] [23201-23400] [23401-23600] [23601-23800] [23801-24000] [24001-24200] [24201-24400] [24401-24600] [24601-24800] [24801-25000] [25001-25200] [25201-25400] [25401-25600] [25601-25800] [25801-26000] [26001-26200] [26201-26400] [26401-26600] [26601-26800] [26801-27000] [27001-27200] [27201-27400] [27401-27600] [27601-27800] [27801-28000] [28001-28200] [28201-28400] [28401-28600] [28601-28800] [28801-29000] [29001-29200] [29201-29400] [29401-29600] [29601-29800] [29801-30000] [30001-30200] [30201-30400] [30401-30600] [30601-30800] [30801-31000] [31001-31200] [31201-31400] [31401-31600] [31601-31800] [31801-32000] [32001-32200] [32201-32400] [32401-32600] [32601-32800] [32801-33000] [33001-33200] [33201-33400] [33401-33600] [33601-33800] [33801-34000] [34001-34200] [34201-34400] [34401-34600] [34601-34800] [34801-35000] [35001-35200] [35201-35400] [35401-35600] [35601-35800] [35801-36000] [36001-36200] [36201-36400] [36401-36600] [36601-36800] [36801-37000] [37001-37200] [37201-37400] [37401-37600] [37601-37800] [37801-38000] [38001-38200] [38201-38400] [38401-38600] [38601-38800] [38801-39000] [39001-39200] [39201-39400] [39401-39600] [39601-39800] [39801-40000] [40001-40200] [40201-40400] [40401-40600] [40601-40800] [40801-41000] [41001-41200] [41201-41400] [41401-41600] [41601-41800] [41801-42000] [42001-42200] [42201-42400] [42401-42600] [42601-42800] [42801-43000] [43001-43200] [43201-43400] [43401-43600] [43601-43800] [43801-44000] [44001-44200] [44201-44400] [44401-44600] [44601-44800] [44801-45000] [45001-45200] [45201-45400] [45401-45600] [45601-45800] [45801-46000] [46001-46200] [46201-46400] [46401-46600] [46601-46800] [46801-47000] [47001-47200] [47201-47400] [47401-47600] [47601-47800] [47801-48000] [48001-48200] [48201-48400] [48401-48600] [48601-48800] [48801-49000] [49001-49200] [49201-49400] [49401-49600] [49601-49800] [49801-50000] [50001-50200] [50201-50388]